createdAt,value
2019-03-08T00:00:46.934Z,45.00
2019-03-08T00:03:51.618Z,44.60
2019-03-08T00:06:22.456Z,44.80
2019-03-08T00:08:53.536Z,45.20
2019-03-08T00:11:25.579Z,45.00
2019-03-08T00:13:56.540Z,45.40
2019-03-08T00:16:27.037Z,45.50
2019-03-08T00:18:57.753Z,45.40
2019-03-08T00:21:28.586Z,45.50
2019-03-08T00:23:59.070Z,45.50
2019-03-08T00:26:29.909Z,45.60
2019-03-08T00:29:00.868Z,45.60
2019-03-08T00:31:31.590Z,44.90
2019-03-08T00:34:01.953Z,45.40
2019-03-08T00:36:33.394Z,45.30
2019-03-08T00:39:05.554Z,45.30
2019-03-08T00:41:37.834Z,45.20
2019-03-08T00:44:08.436Z,45.10
2019-03-08T00:46:39.038Z,44.80
2019-03-08T00:49:09.516Z,44.60
2019-03-08T00:51:40.598Z,44.30
2019-03-08T00:54:11.682Z,43.70
2019-03-08T00:56:42.400Z,44.20
2019-03-08T00:59:12.762Z,44.20
2019-03-08T01:01:43.367Z,43.50
2019-03-08T01:04:14.084Z,43.80
2019-03-08T01:06:45.406Z,44.20
2019-03-08T01:09:16.968Z,43.40
2019-03-08T01:11:47.694Z,43.80
2019-03-08T01:14:19.134Z,43.20
2019-03-08T01:16:50.213Z,43.50
2019-03-08T01:19:20.694Z,43.70
2019-03-08T01:21:51.774Z,43.30
2019-03-08T01:24:22.617Z,43.80
2019-03-08T01:26:53.101Z,43.60
2019-03-08T01:29:23.820Z,43.20
2019-03-08T01:31:54.784Z,43.20
2019-03-08T01:34:26.822Z,43.40
2019-03-08T01:36:57.783Z,43.40
2019-03-08T01:39:28.862Z,43.80
2019-03-08T01:42:00.065Z,43.70
2019-03-08T01:44:30.669Z,43.00
2019-03-08T01:47:01.992Z,43.10
2019-03-08T01:49:32.949Z,43.40
2019-03-08T01:52:03.789Z,43.50
2019-03-08T01:54:34.750Z,43.00
2019-03-08T01:57:05.715Z,43.20
2019-03-08T01:59:36.800Z,43.00
2019-03-08T02:02:07.754Z,43.20
2019-03-08T02:04:38.478Z,43.20
2019-03-08T02:07:10.762Z,43.40
2019-03-08T02:09:41.363Z,43.40
2019-03-08T02:12:12.200Z,43.00
2019-03-08T02:14:42.924Z,43.00
2019-03-08T02:17:14.245Z,43.00
2019-03-08T02:19:45.088Z,43.00
2019-03-08T02:22:15.569Z,42.80
2019-03-08T02:24:46.285Z,42.70
2019-03-08T02:27:17.370Z,43.00
2019-03-08T02:29:48.331Z,42.50
2019-03-08T02:32:19.533Z,42.40
2019-03-08T02:34:50.494Z,42.60
2019-03-08T02:37:21.337Z,42.40
2019-03-08T02:39:52.175Z,42.30
2019-03-08T02:42:23.259Z,42.20
2019-03-08T02:44:54.219Z,42.40
2019-03-08T02:47:25.542Z,43.10
2019-03-08T02:49:56.141Z,42.90
2019-03-08T02:52:26.983Z,42.70
2019-03-08T02:54:57.703Z,42.80
2019-03-08T02:57:28.423Z,42.70
2019-03-08T02:59:59.386Z,42.70
2019-03-08T03:02:30.225Z,42.50
2019-03-08T03:05:01.191Z,42.80
2019-03-08T03:07:31.909Z,43.00
2019-03-08T03:10:03.109Z,42.70
2019-03-08T03:12:34.191Z,43.30
2019-03-08T03:15:05.397Z,43.20
2019-03-08T03:17:35.755Z,43.50
2019-03-08T03:22:44.035Z,43.10
2019-03-08T03:25:15.258Z,43.00
2019-03-08T03:27:46.676Z,42.90
2019-03-08T03:30:18.122Z,43.20
2019-03-08T03:32:49.203Z,43.40
2019-03-08T03:35:19.919Z,43.20
2019-03-08T03:37:51.485Z,43.40
2019-03-08T03:40:22.445Z,43.20
2019-03-08T03:42:53.407Z,42.90
2019-03-08T03:45:24.008Z,43.50
2019-03-08T03:47:54.731Z,43.70
2019-03-08T03:50:25.446Z,43.50
2019-03-08T03:52:56.653Z,43.20
2019-03-08T03:55:27.611Z,43.10
2019-03-08T03:57:58.577Z,43.10
2019-03-08T04:00:29.300Z,43.20
2019-03-08T04:03:00.261Z,43.10
2019-03-08T04:05:31.581Z,43.30
2019-03-08T04:08:02.297Z,43.40
2019-03-08T04:10:32.782Z,43.20
2019-03-08T04:13:03.385Z,43.70
2019-03-08T04:15:34.345Z,43.80
2019-03-08T04:18:04.948Z,43.60
2019-03-08T04:20:35.427Z,43.80
2019-03-08T04:23:06.146Z,43.50
2019-03-08T04:25:36.872Z,43.50
2019-03-08T04:28:07.708Z,43.60
2019-03-08T04:30:38.672Z,43.60
2019-03-08T04:33:09.273Z,43.60
2019-03-08T04:35:39.871Z,43.70
2019-03-08T04:38:11.793Z,43.70
2019-03-08T04:40:42.995Z,44.00
2019-03-08T04:43:13.481Z,44.60
2019-03-08T04:45:44.201Z,44.30
2019-03-08T04:48:14.680Z,44.00
2019-03-08T04:50:45.164Z,44.00
2019-03-08T04:53:25.248Z,43.40
2019-03-08T04:55:56.203Z,43.60
2019-03-08T04:58:26.927Z,43.80
2019-03-08T05:00:57.765Z,43.70
2019-03-08T05:03:28.371Z,43.30
2019-03-08T05:06:00.796Z,43.40
2019-03-08T05:08:31.493Z,43.30
2019-03-08T05:11:02.450Z,43.50
2019-03-08T05:13:33.775Z,43.30
2019-03-08T05:16:04.613Z,43.50
2019-03-08T05:18:35.577Z,43.60
2019-03-08T05:21:07.255Z,43.70
2019-03-08T05:23:37.860Z,43.70
2019-03-08T05:26:08.580Z,43.70
2019-03-08T05:28:38.943Z,43.80
2019-03-08T05:31:09.781Z,43.40
2019-03-08T05:33:40.263Z,43.50
2019-03-08T05:36:11.347Z,43.70
2019-03-08T05:38:42.183Z,43.50
2019-03-08T05:41:12.550Z,43.80
2019-03-08T05:43:43.148Z,43.80
2019-03-08T05:46:14.107Z,43.80
2019-03-08T05:48:45.791Z,43.90
2019-03-08T05:51:16.990Z,44.00
2019-03-08T05:53:47.712Z,44.00
2019-03-08T05:56:18.433Z,44.00
2019-03-08T05:58:49.273Z,44.00
2019-03-08T06:01:20.477Z,44.20
2019-03-08T06:03:50.958Z,44.40
2019-03-08T06:06:21.559Z,44.20
2019-03-08T06:08:53.123Z,44.40
2019-03-08T06:11:23.842Z,44.60
2019-03-08T06:13:54.923Z,44.90
2019-03-08T06:16:25.526Z,45.10
2019-03-08T06:18:56.127Z,45.00
2019-03-08T06:21:27.565Z,45.00
2019-03-08T06:23:59.127Z,44.80
2019-03-08T06:26:30.688Z,45.00
2019-03-08T06:29:02.013Z,45.10
2019-03-08T06:31:33.097Z,45.10
2019-03-08T06:34:04.054Z,45.50
2019-03-08T06:36:34.654Z,45.50
2019-03-08T06:39:07.420Z,45.70
2019-03-08T06:41:38.137Z,45.80
2019-03-08T06:44:08.742Z,45.90
2019-03-08T06:46:40.060Z,46.30
2019-03-08T06:49:12.102Z,46.60
2019-03-08T06:51:42.962Z,46.80
2019-03-08T06:54:14.384Z,46.80
2019-03-08T06:56:44.986Z,46.90
2019-03-08T06:59:33.227Z,47.00
2019-03-08T07:02:04.788Z,46.90
2019-03-08T07:04:35.420Z,46.90
2019-03-08T07:07:05.873Z,47.10
2019-03-08T07:09:36.832Z,47.30
2019-03-08T07:12:07.674Z,47.40
2019-03-08T07:14:38.755Z,47.50
2019-03-08T07:17:09.714Z,47.40
2019-03-08T07:19:50.282Z,47.50
2019-03-08T07:22:40.198Z,47.60
2019-03-08T07:25:29.520Z,47.50
2019-03-08T07:28:24.966Z,47.60
2019-03-08T07:31:14.522Z,47.30
2019-03-08T07:33:55.685Z,47.40
2019-03-08T07:36:53.168Z,47.50
2019-03-08T07:39:41.408Z,47.80
2019-03-08T07:42:30.368Z,47.70
2019-03-08T07:45:18.856Z,47.80
2019-03-08T07:48:20.050Z,47.90
2019-03-08T07:51:02.773Z,47.90
2019-03-08T07:54:01.577Z,47.90
2019-03-08T07:56:39.014Z,47.70
2019-03-08T07:59:31.582Z,47.80
2019-03-08T08:02:11.897Z,47.60
2019-03-08T08:05:02.178Z,47.70
2019-03-08T08:07:45.028Z,47.70
2019-03-08T08:10:30.505Z,47.50
2019-03-08T08:13:29.782Z,47.80
2019-03-08T08:16:25.105Z,47.80
2019-03-08T08:19:12.985Z,47.90
2019-03-08T08:22:00.749Z,48.00
2019-03-08T08:24:42.150Z,48.00
2019-03-08T08:27:28.473Z,47.90
2019-03-08T08:30:16.833Z,47.70
2019-03-08T08:33:06.272Z,47.90
2019-03-08T08:35:55.958Z,47.80
2019-03-08T08:38:46.117Z,47.70
2019-03-08T08:41:38.318Z,48.10
2019-03-08T08:44:31.361Z,47.90
2019-03-08T08:47:21.041Z,48.00
2019-03-08T08:50:10.963Z,47.80
2019-03-08T08:52:51.283Z,47.40
2019-03-08T08:55:44.207Z,47.70
2019-03-08T08:58:23.809Z,47.40
2019-03-08T09:01:22.979Z,47.40
2019-03-08T09:04:08.811Z,47.30
2019-03-08T09:07:10.970Z,47.70
2019-03-08T09:09:58.973Z,47.60
2019-03-08T09:12:48.414Z,47.70
2019-03-08T09:15:24.054Z,47.70
2019-03-08T09:18:07.377Z,47.50
2019-03-08T09:20:50.937Z,46.60
2019-03-08T09:23:31.257Z,46.90
2019-03-08T09:26:19.881Z,46.70
2019-03-08T09:29:17.719Z,46.70
2019-03-08T09:32:11.105Z,46.90
2019-03-08T09:35:05.107Z,47.40
2019-03-08T09:37:59.464Z,47.30
2019-03-08T09:40:44.227Z,47.40
2019-03-08T09:43:49.630Z,47.40
2019-03-08T09:46:26.834Z,47.00
2019-03-08T09:49:13.754Z,46.90
2019-03-08T09:51:52.156Z,46.30
2019-03-08T09:54:34.998Z,46.00
2019-03-08T09:57:18.436Z,46.30
2019-03-08T09:59:57.559Z,46.30
2019-03-08T10:02:47.477Z,46.30
2019-03-08T10:05:36.322Z,45.90
2019-03-08T10:08:17.011Z,46.30
2019-03-08T10:10:56.482Z,46.30
2019-03-08T10:13:49.052Z,46.70
2019-03-08T10:16:30.327Z,46.50
2019-03-08T10:19:18.208Z,46.20
2019-03-08T10:21:58.649Z,46.30
2019-03-08T10:24:54.088Z,46.60
2019-03-08T10:27:46.771Z,46.10
2019-03-08T10:30:36.211Z,46.20
2019-03-08T10:33:18.820Z,45.70
2019-03-08T10:36:08.504Z,44.90
2019-03-08T10:38:57.222Z,44.80
2019-03-08T10:41:59.266Z,44.50
2019-03-08T10:44:48.948Z,45.50
2019-03-08T10:47:37.781Z,45.30
2019-03-08T10:50:14.268Z,44.50
2019-03-08T10:52:50.270Z,44.00
2019-03-08T10:55:39.950Z,44.70
2019-03-08T10:58:23.631Z,44.40
2019-03-08T11:01:25.916Z,44.80
2019-03-08T11:04:21.476Z,44.60
2019-03-08T11:06:59.753Z,44.10
2019-03-08T11:09:49.313Z,43.90
2019-03-08T11:12:41.760Z,43.70
2019-03-08T11:15:30.595Z,43.90
2019-03-08T11:18:16.319Z,44.30
2019-03-08T11:21:06.002Z,44.50
2019-03-08T11:23:52.683Z,45.00
2019-03-08T11:26:40.684Z,45.00
2019-03-08T11:29:36.365Z,44.90
2019-03-08T11:32:34.686Z,44.90
2019-03-08T11:35:19.205Z,45.20
2019-03-08T11:38:02.418Z,45.30
2019-03-08T11:40:51.971Z,45.20
2019-03-08T11:43:35.531Z,45.40
2019-03-08T11:46:25.212Z,45.10
2019-03-08T11:49:05.417Z,45.10
2019-03-08T11:52:06.975Z,45.30
2019-03-08T11:55:15.139Z,44.70
2019-03-08T11:58:04.821Z,44.80
2019-03-08T12:00:41.779Z,44.10
2019-03-08T12:03:27.142Z,44.10
2019-03-08T12:06:03.983Z,44.70
2019-03-08T12:08:53.546Z,44.90
2019-03-08T12:11:43.109Z,44.50
2019-03-08T12:14:35.427Z,44.40
2019-03-08T12:17:30.387Z,43.90
2019-03-08T12:20:31.956Z,43.40
2019-03-08T12:23:24.391Z,43.50
2019-03-08T12:26:12.512Z,43.30
2019-03-08T12:28:51.410Z,43.30
2019-03-08T12:31:55.836Z,43.40
2019-03-08T12:34:43.720Z,43.80
2019-03-08T12:37:18.878Z,43.00
2019-03-08T12:40:20.805Z,43.20
2019-03-08T12:43:28.363Z,43.10
2019-03-08T12:46:16.369Z,42.80
2019-03-08T12:49:11.564Z,42.50
2019-03-08T12:51:59.567Z,42.90
2019-03-08T12:54:59.687Z,43.10
2019-03-08T12:57:38.208Z,43.10
2019-03-08T13:00:30.415Z,42.80
2019-03-08T13:03:19.013Z,42.30
2019-03-08T13:06:10.858Z,42.30
2019-03-08T13:08:58.977Z,41.70
2019-03-08T13:11:33.285Z,42.20
2019-03-08T13:14:01.860Z,42.20
2019-03-08T13:16:32.577Z,42.60
2019-03-08T13:19:03.306Z,42.50
2019-03-08T13:21:34.265Z,42.50
2019-03-08T13:24:05.104Z,42.30
2019-03-08T13:26:35.704Z,42.40
2019-03-08T13:29:06.548Z,42.20
2019-03-08T13:31:37.027Z,42.80
2019-03-08T13:34:07.987Z,43.10
2019-03-08T13:36:38.951Z,42.90
2019-03-08T13:39:10.152Z,42.90
2019-03-08T13:41:40.993Z,43.00
2019-03-08T13:44:11.836Z,42.90
2019-03-08T13:46:42.674Z,43.10
2019-03-08T13:49:13.515Z,42.70
2019-03-08T13:51:44.236Z,42.50
2019-03-08T13:54:15.086Z,42.60
2019-03-08T13:56:45.557Z,43.10
2019-03-08T13:59:16.162Z,43.20
2019-03-08T14:01:46.884Z,43.40
2019-03-08T14:04:17.722Z,43.20
2019-03-08T14:06:49.043Z,43.40
2019-03-08T14:09:19.890Z,42.90
2019-03-08T14:11:50.968Z,43.10
2019-03-08T14:14:21.689Z,43.60
2019-03-08T14:16:52.536Z,43.60
2019-03-08T14:19:23.010Z,43.70
2019-03-08T14:21:54.935Z,43.50
2019-03-08T14:24:25.776Z,43.40
2019-03-08T14:26:56.496Z,42.90
2019-03-08T14:29:27.216Z,43.10
2019-03-08T14:32:03.099Z,42.80
2019-03-08T14:34:34.060Z,43.00
2019-03-08T14:37:05.264Z,44.40
2019-03-08T14:39:40.204Z,43.60
2019-03-08T14:42:17.382Z,42.70
2019-03-08T14:45:03.383Z,42.50
2019-03-08T14:47:46.549Z,43.30
2019-03-08T14:50:17.868Z,43.00
2019-03-08T14:52:48.469Z,42.50
2019-03-08T14:55:22.769Z,42.30
2019-03-08T14:57:55.303Z,42.40
2019-03-08T15:00:28.626Z,42.60
2019-03-08T15:02:57.242Z,43.00
2019-03-08T15:05:28.310Z,43.30
2019-03-08T15:07:59.158Z,43.10
2019-03-08T15:10:39.078Z,42.20
2019-03-08T15:13:04.104Z,42.30
2019-03-08T15:15:35.287Z,42.40
2019-03-08T15:18:06.361Z,42.70
2019-03-08T15:20:37.904Z,42.20
2019-03-08T15:23:08.885Z,42.20
2019-03-08T15:25:40.685Z,41.50
2019-03-08T15:28:11.890Z,42.00
2019-03-08T15:30:42.732Z,42.20
2019-03-08T15:33:13.452Z,42.60
2019-03-08T15:35:44.289Z,42.80
2019-03-08T15:38:15.132Z,41.90
2019-03-08T15:40:45.972Z,42.20
2019-03-08T15:43:17.177Z,41.90
2019-03-08T15:45:47.898Z,41.40
2019-03-08T15:48:19.099Z,41.40
2019-03-08T15:50:50.179Z,41.80
2019-03-08T15:53:21.144Z,41.50
2019-03-08T15:55:53.391Z,41.30
2019-03-08T15:58:24.262Z,41.50
2019-03-08T16:00:54.863Z,41.50
2019-03-08T16:03:25.465Z,41.80
2019-03-08T16:05:56.666Z,41.60
2019-03-08T16:08:27.269Z,42.00
2019-03-08T16:10:58.115Z,42.30
2019-03-08T16:13:29.190Z,42.00
2019-03-08T16:16:00.152Z,41.80
2019-03-08T16:18:31.240Z,42.30
2019-03-08T16:21:01.962Z,42.80
2019-03-08T16:23:32.794Z,42.50
2019-03-08T16:26:03.756Z,42.60
2019-03-08T16:28:34.956Z,42.60
2019-03-08T16:31:21.779Z,43.20
2019-03-08T16:33:53.568Z,43.40
2019-03-08T16:36:48.881Z,43.50
2019-03-08T16:39:31.126Z,43.30
2019-03-08T16:42:29.687Z,42.80
2019-03-08T16:45:19.486Z,43.00
2019-03-08T16:48:08.088Z,43.20
2019-03-08T16:50:51.651Z,43.20
2019-03-08T16:53:28.256Z,43.60
2019-03-08T16:56:04.498Z,43.20
2019-03-08T16:58:47.338Z,43.60
2019-03-08T17:01:43.382Z,43.80
2019-03-08T17:04:36.060Z,43.80
2019-03-08T17:07:17.338Z,43.60
2019-03-08T17:10:06.900Z,43.50
2019-03-08T17:12:57.183Z,43.30
2019-03-08T17:15:46.022Z,43.40
2019-03-08T17:18:41.463Z,43.30
2019-03-08T17:21:31.263Z,43.00
2019-03-08T17:24:25.153Z,43.40
2019-03-08T17:27:04.990Z,43.40
2019-03-08T17:29:43.389Z,43.60
2019-03-08T17:32:45.199Z,43.30
2019-03-08T17:35:56.832Z,43.10
2019-03-08T17:38:39.676Z,43.10
2019-03-08T17:41:22.634Z,43.40
2019-03-08T17:44:19.523Z,43.90
2019-03-08T17:47:06.561Z,43.60
2019-03-08T17:50:15.913Z,43.60
2019-03-08T17:53:02.963Z,43.70
2019-03-08T17:56:07.770Z,43.70
2019-03-08T17:58:52.886Z,43.40
2019-03-08T18:01:42.208Z,43.40
2019-03-08T18:04:35.008Z,43.60
2019-03-08T18:07:23.857Z,43.20
2019-03-08T18:10:11.369Z,43.40
2019-03-08T18:13:09.810Z,44.00
2019-03-08T18:15:55.296Z,43.90
2019-03-08T18:18:56.856Z,43.80
2019-03-08T18:21:38.977Z,43.80
2019-03-08T18:24:37.417Z,43.70
2019-03-08T18:27:29.979Z,43.50
2019-03-08T18:30:10.907Z,43.50
2019-03-08T18:33:06.236Z,43.50
2019-03-08T18:35:58.669Z,43.40
2019-03-08T18:38:46.303Z,43.00
2019-03-08T18:41:35.872Z,43.00
2019-03-08T18:44:24.109Z,43.10
2019-03-08T18:47:28.789Z,42.80
2019-03-08T18:50:27.588Z,43.10
2019-03-08T18:53:23.631Z,43.30
2019-03-08T18:56:19.440Z,43.10
2019-03-08T18:59:10.676Z,42.60
2019-03-08T19:02:02.037Z,43.00
2019-03-08T19:04:51.718Z,43.20
2019-03-08T19:07:40.208Z,43.10
2019-03-08T19:10:33.132Z,42.60
2019-03-08T19:13:22.215Z,42.80
2019-03-08T19:15:58.690Z,42.90
2019-03-08T19:18:54.366Z,43.10
2019-03-08T19:21:50.057Z,43.10
2019-03-08T19:24:39.261Z,42.50
2019-03-08T19:27:18.796Z,42.50
2019-03-08T19:30:26.660Z,42.60
2019-03-08T19:33:19.340Z,42.70
2019-03-08T19:36:04.580Z,42.90
2019-03-08T19:38:53.064Z,42.90
2019-03-08T19:41:41.425Z,43.20
2019-03-08T19:44:33.623Z,43.20
2019-03-08T19:47:25.833Z,42.90
2019-03-08T19:50:33.643Z,42.70
2019-03-08T19:53:32.306Z,43.00
2019-03-08T19:56:22.349Z,43.00
2019-03-08T19:59:09.990Z,43.10
2019-03-08T20:02:01.834Z,42.90
2019-03-08T20:04:51.513Z,43.10
2019-03-08T20:07:30.758Z,42.90
2019-03-08T20:10:13.111Z,43.10
2019-03-08T20:13:11.796Z,42.70
2019-03-08T20:16:00.639Z,43.20
2019-03-08T20:18:50.558Z,43.10
2019-03-08T20:21:52.481Z,43.10
2019-03-08T20:24:48.164Z,42.80
2019-03-08T20:27:36.404Z,43.00
2019-03-08T20:30:32.568Z,43.10
2019-03-08T20:33:25.248Z,43.00
2019-03-08T20:36:14.932Z,43.00
2019-03-08T20:38:53.449Z,43.00
2019-03-08T20:41:55.368Z,42.90
2019-03-08T20:44:42.291Z,43.10
2019-03-08T20:47:16.494Z,43.30
2019-03-08T20:49:47.575Z,43.10
2019-03-08T20:52:18.776Z,43.20
2019-03-08T20:54:49.976Z,43.20
2019-03-08T20:57:20.702Z,43.40
2019-03-08T20:59:51.541Z,43.60
2019-03-08T21:02:25.747Z,43.20
2019-03-08T21:04:56.589Z,43.60
2019-03-08T21:07:27.424Z,43.50
2019-03-08T21:09:58.749Z,43.10
2019-03-08T21:12:29.597Z,43.40
2019-03-08T21:15:00.441Z,43.40
2019-03-08T21:17:31.388Z,43.50
2019-03-08T21:20:02.230Z,43.40
2019-03-08T21:22:33.071Z,43.50
2019-03-08T21:25:03.911Z,43.50
2019-03-08T21:27:34.992Z,43.60
2019-03-08T21:30:07.275Z,43.50
2019-03-08T21:32:38.117Z,43.50
2019-03-08T21:35:16.035Z,43.40
2019-03-08T21:37:46.877Z,43.40
2019-03-08T21:40:17.720Z,43.60
2019-03-08T21:42:48.321Z,43.60
2019-03-08T21:45:19.165Z,43.50
2019-03-08T21:47:49.883Z,43.90
2019-03-08T21:50:20.723Z,43.30
2019-03-08T21:52:51.566Z,43.90
2019-03-08T21:55:22.406Z,43.60
2019-03-08T21:57:53.376Z,44.00
2019-03-08T22:00:24.339Z,44.10
2019-03-08T22:02:55.050Z,44.20
2019-03-08T22:05:31.654Z,43.80
2019-03-08T22:08:02.377Z,44.00
2019-03-08T22:10:45.215Z,44.00
2019-03-08T22:13:16.657Z,44.10
2019-03-08T22:15:47.295Z,44.00
2019-03-08T22:18:18.100Z,43.90
2019-03-08T22:20:48.578Z,44.00
2019-03-08T22:23:19.182Z,44.10
2019-03-08T22:25:49.904Z,43.80
2019-03-08T22:28:20.626Z,44.00
2019-03-08T22:30:51.585Z,44.20
2019-03-08T22:33:23.027Z,44.40
2019-03-08T22:35:53.988Z,44.00
2019-03-08T22:38:24.834Z,44.20
2019-03-08T22:40:55.791Z,44.30
2019-03-08T22:43:26.395Z,44.20
2019-03-08T22:45:57.114Z,44.10
2019-03-08T22:48:27.956Z,44.40
2019-03-08T22:50:59.036Z,44.50
2019-03-08T22:53:29.880Z,44.70
2019-03-08T22:56:00.600Z,44.50
2019-03-08T22:58:31.322Z,44.50
2019-03-08T23:01:07.799Z,44.60
2019-03-08T23:03:40.087Z,44.70
2019-03-08T23:06:10.805Z,44.80
2019-03-08T23:08:41.404Z,44.80
2019-03-08T23:11:12.607Z,44.70
2019-03-08T23:13:43.206Z,44.60
2019-03-08T23:16:13.930Z,44.70
2019-03-08T23:18:44.650Z,44.70
2019-03-08T23:21:15.134Z,44.60
2019-03-08T23:23:46.570Z,44.60
2019-03-08T23:26:17.292Z,44.70
2019-03-08T23:29:02.658Z,44.60
2019-03-08T23:31:51.497Z,44.50
2019-03-08T23:34:22.458Z,44.80
2019-03-08T23:36:53.301Z,44.70
2019-03-08T23:39:24.501Z,44.90
2019-03-08T23:41:55.822Z,45.00
2019-03-08T23:44:26.543Z,44.80
2019-03-08T23:46:57.146Z,45.00
2019-03-08T23:49:27.749Z,45.00
2019-03-08T23:51:58.468Z,45.00
2019-03-08T23:54:29.070Z,45.10
2019-03-08T23:56:59.789Z,44.90
2019-03-08T23:59:30.994Z,45.20
